Flight Track Log - Related Links

Times and Time Zones

All times are in EDT time to prevent confusion due to time zone crossing. See the ASQ4633 flight status page for this flight to view local times or setup timezone preferences in your user account.

Time Position Orientation Groundspeed Altitude Reporting Facility
EDT Latitude Longitude Course Direction KTS MPH feet Rate Location/Type
Mon 07:46:14 PM 40.8067 -111.9794 146° Southeast 194 223 4,800  Level Salt Lake Center
Mon 07:47:03 PM 40.8506 -111.9842 355° North 202 232 6,300 1,831 Climbing Salt Lake Center
Mon 07:48:12 PM 40.9269 -111.9939 355° North 235 270 8,400 1,878 Climbing Salt Lake Center
Mon 07:49:00 PM 41.1333 -111.8683 90° East  Level FlightAware Approximate
Mon 07:49:14 PM 41.0044 -112.0039 354° North 278 320 10,400  Level Salt Lake Center
Mon 07:50:00 PM 41.0951 -111.7559 159° South  Level FlightAware Approximate
Mon 07:50:16 PM 41.0847 -112.0000 North 290 334 12,700  Level Salt Lake Center
Mon 07:51:00 PM 41.0072 -111.6814 146° Southeast  Level FlightAware Approximate
Mon 07:51:18 PM 41.0925 -111.9056 84° East 290 334 14,900  Level Salt Lake Center
Mon 07:52:20 PM 41.0400 -111.8203 129° Southeast 285 328 17,500 2,081 Climbing Salt Lake Center
Mon 07:53:22 PM 41.0197 -111.7089 104° East 309 356 19,200 1,561 Climbing Salt Lake Center
Mon 07:54:23 PM 41.0008 -111.5900 102° East 329 379 20,700 1,512 Climbing Salt Lake Center
Mon 07:55:25 PM 40.9808 -111.4636 102° East 350 403 22,300 1,452 Climbing Salt Lake Center
Mon 07:56:27 PM 40.9594 -111.3319 102° East 366 421 23,700 1,403 Climbing Salt Lake Center
Mon 07:57:29 PM 40.9367 -111.1967 103° East 376 433 25,200 1,597 Climbing Salt Lake Center
Mon 07:58:31 PM 40.9086 -111.0297 102° East 388 447 27,000 1,415 Climbing Salt Lake Center
Mon 07:59:32 PM 40.8992 -110.8842 95° East 396 456 28,100 1,024 Climbing Salt Lake Center
Mon 08:00:34 PM 40.8881 -110.7353 96° East 407 468 29,100 968 Climbing Salt Lake Center
Mon 08:01:36 PM 40.8750 -110.5756 96° East 419 482 30,100 968 Climbing Salt Lake Center
Mon 08:02:38 PM 40.8461 -110.4303 105° East 426 490 31,100 1,024 Climbing Salt Lake Center
Mon 08:03:39 PM 40.8011 -110.2639 110° East 433 498 32,200 976 Climbing Salt Lake Center
Mon 08:04:41 PM 40.7625 -110.1239 110° East 440 506 33,100 968 Climbing Salt Lake Center
Mon 08:05:43 PM 40.7350 -109.9458 101° East 447 514 34,200 927 Climbing Salt Lake Center
Mon 08:06:44 PM 40.7247 -109.7903 95° East 446 513 35,000 390 Climbing Salt Lake Center
Mon 08:07:46 PM 40.7100 -109.6028 96° East 459 528 35,000  Level Salt Lake Center
Mon 08:08:48 PM 40.6981 -109.4350 95° East 475 547 35,000  Level Salt Lake Center
Mon 08:09:49 PM 40.6842 -109.2394 95° East 479 551 35,000  Level Salt Lake Center
Mon 08:10:51 PM 40.6706 -109.0778 96° East 473 544 35,000  Level Salt Lake Center
Mon 08:11:20 PM 40.6656 -108.9939 94° East 463 533 35,000  Level Denver Center
Mon 08:12:22 PM 40.6525 -108.8367 96° East 452 520 35,000  Level Denver Center
Mon 08:13:24 PM 40.6397 -108.6500 95° East 455 524 35,000  Level Denver Center
Mon 08:14:26 PM 40.6275 -108.4867 96° East 465 535 35,000  Level Denver Center
Mon 08:15:28 PM 40.6125 -108.2908 96° East 478 550 35,000  Level Denver Center
Mon 08:16:30 PM 40.5992 -108.1222 96° East 482 555 35,000  Level Denver Center
Mon 08:17:32 PM 40.5839 -107.9261 96° East 480 552 35,000  Level Denver Center
Mon 08:18:34 PM 40.5703 -107.7608 96° East 476 548 35,000  Level Denver Center
Mon 08:19:36 PM 40.5544 -107.5683 96° East 475 547 35,000  Level Denver Center
Mon 08:20:38 PM 40.5406 -107.4011 96° East 478 550 35,000  Level Denver Center
Mon 08:21:40 PM 40.5253 -107.2347 97° East 479 551 35,000  Level Denver Center
Mon 08:22:42 PM 40.5094 -107.0386 96° East 478 550 35,000  Level Denver Center
Mon 08:23:44 PM 40.4928 -106.8642 97° East 479 551 35,000  Level Denver Center
Mon 08:24:46 PM 40.4781 -106.6889 96° East 480 552 35,000  Level Denver Center
Mon 08:25:48 PM 40.4633 -106.5156 96° East 477 549 35,000 -677 Level Denver Center
Mon 08:26:50 PM 40.4439 -106.3206 97° East 476 548 33,600 -2,129 Descending Denver Center
Mon 08:27:52 PM 40.4278 -106.1528 97° East 458 527 30,600 -3,097 Descending Denver Center
Mon 08:28:54 PM 40.4125 -105.9906 97° East 450 518 27,200 -3,048 Descending Denver Center
Mon 08:29:56 PM 40.3981 -105.8333 97° East 438 504 24,300 -2,419 Descending Denver Center
Mon 08:30:58 PM 40.3817 -105.6772 98° East 433 498 22,200 -2,081 Descending Denver Center
Mon 08:32:00 PM 40.3667 -105.5331 98° East 407 468 20,000 -2,129 Descending Denver Center
Mon 08:33:02 PM 40.3481 -105.3833 99° East 364 419 17,800 -1,790 Descending Denver Center
Mon 08:34:04 PM 40.3328 -105.2631 99° East 337 388 16,300 -1,645 Descending Denver Center
Mon 08:35:06 PM 40.3156 -105.1392 100° East 325 374 14,400 -1,500 Descending Denver Center
Mon 08:36:08 PM 40.3056 -105.0289 97° East 308 354 13,200 -1,113 Descending Denver Center
Mon 08:37:10 PM 40.3044 -104.9194 91° East 283 326 12,100 -1,065 Descending Denver Center
Mon 08:38:12 PM 40.2994 -104.8244 94° East 269 310 11,000 -1,210 Descending Denver Center
Mon 08:39:14 PM 40.2408 -104.7819 151° Southeast 241 277 9,600 -919 Descending Denver Center
Mon 08:40:16 PM 40.1750 -104.7422 155° Southeast 237 273 9,100 -339 Descending Denver Center
Mon 08:41:18 PM 40.1147 -104.7083 157° South 241 277 8,900 -484 Descending Denver Center
Mon 08:42:20 PM 40.0483 -104.6947 171° South 225 259 8,100 -871 Descending Denver Center
Mon 08:43:22 PM 39.9864 -104.6950 180° South 222 255 7,100 -968 Descending Denver Center

Login

Don't have an account? Register now (free) for customized features, flight alerts, and more!